Time;durP1;ratioP1;P1;durP2;ratioP2;P2;SDS_P1;SDS_P2;PMS_P1;PMS_P2;Temp;Humidity;BMP_temperature;BMP_pressure;BME280_temperature;BME280_humidity;BME280_pressure;Samples;Min_cycle;Max_cycle;Signal;HPM_P1;HPM_P2
2023/01/12 00:00:41;;;;;;;0.00;0.00;;;;;;;;;;5015630;28;20205;-94
2023/01/12 00:03:21;;;;;;;;;;;;;;;;;;;;;
2023/01/12 00:06:11;;;;;;;1.67;0.47;;;;;;;;;;5014773;28;20231;-92
2023/01/12 00:08:46;;;;;;;0.77;0.77;;;;;;;;;;4996733;28;20205;-94
2023/01/12 00:11:16;;;;;;;2.77;1.07;;;;;;;;;;4995355;28;20189;-93
2023/01/12 00:14:03;;;;;;;0.20;0.20;;;;;;;;;;4994154;28;20248;-93
2023/01/12 00:16:39;;;;;;;0.10;0.10;;;;;;;;;;4994076;28;20205;-92
2023/01/12 00:19:15;;;;;;;0.10;0.10;;;;;;;;;;4993492;28;20201;-93
2023/01/12 00:21:55;;;;;;;0.00;0.00;;;;;;;;;;4994116;28;20306;-93
2023/01/12 00:24:27;;;;;;;0.10;0.10;;;;;;;;;;4993337;28;20228;-92
2023/01/12 00:32:30;;;;;;;0.00;0.00;;;;;;;;;;5076450;28;20603;-92
2023/01/12 00:35:16;;;;;;;0.30;0.30;;;;;;;;;;5076242;28;20194;-94
2023/01/12 00:38:00;;;;;;;0.10;0.10;;;;;;;;;;5076586;28;20244;-93
2023/01/12 00:40:34;;;;;;;0.30;0.30;;;;;;;;;;5087676;28;20198;-92
2023/01/12 00:46:02;;;;;;;0.33;0.33;;;;;;;;;;5055682;28;20291;-92
2023/01/12 00:48:34;;;;;;;0.37;0.37;;;;;;;;;;5077565;28;20770;-91
2023/01/12 00:51:13;;;;;;;0.10;0.10;;;;;;;;;;5077714;28;20681;-94
2023/01/12 00:54:03;;;;;;;0.10;0.10;;;;;;;;;;5079275;28;20195;-93
2023/01/12 00:56:38;;;;;;;0.40;0.40;;;;;;;;;;5078491;28;20198;-94
2023/01/12 00:59:11;;;;;;;0.23;0.23;;;;;;;;;;5079413;28;20204;-93
2023/01/12 01:01:40;;;;;;;0.10;0.10;;;;;;;;;;5079059;28;20210;-91
2023/01/12 01:04:18;;;;;;;0.20;0.20;;;;;;;;;;5094439;28;20185;-93
2023/01/12 01:06:52;;;;;;;0.10;0.10;;;;;;;;;;5094986;28;20240;-92
2023/01/12 01:09:20;;;;;;;0.10;0.10;;;;;;;;;;5075786;28;20225;-94
2023/01/12 01:11:56;;;;;;;0.00;0.00;;;;;;;;;;5060189;28;20195;-93
2023/01/12 01:14:27;;;;;;;0.10;0.10;;;;;;;;;;5070471;28;20233;-93
2023/01/12 01:16:59;;;;;;;0.00;0.00;;;;;;;;;;5069119;28;20234;-95
2023/01/12 01:19:30;;;;;;;0.70;0.70;;;;;;;;;;5074187;28;20200;-92
2023/01/12 01:22:01;;;;;;;0.53;0.30;;;;;;;;;;5077247;28;20199;-94
2023/01/12 01:24:36;;;;;;;0.17;0.17;;;;;;;;;;5069549;28;20261;-94
2023/01/12 01:27:08;;;;;;;0.20;0.20;;;;;;;;;;5058220;28;20191;-93
2023/01/12 01:29:39;;;;;;;0.00;0.00;;;;;;;;;;5059046;28;20203;-93
2023/01/12 01:32:08;;;;;;;0.17;0.17;;;;;;;;;;5058820;28;20301;-92
2023/01/12 01:34:47;;;;;;;1.03;1.03;;;;;;;;;;5057435;28;20187;-92
2023/01/12 01:37:21;;;;;;;0.30;0.30;;;;;;;;;;5057939;28;20191;-93
2023/01/12 01:40:01;;;;;;;0.00;0.00;;;;;;;;;;5056744;28;20200;-93
2023/01/12 01:42:34;;;;;;;0.77;0.17;;;;;;;;;;5057756;28;20218;-93
2023/01/12 01:45:07;;;;;;;0.00;0.00;;;;;;;;;;5057209;28;20296;-93
2023/01/12 01:47:41;;;;;;;0.50;0.50;;;;;;;;;;5056720;28;20287;-93
2023/01/12 01:50:17;;;;;;;0.10;0.10;;;;;;;;;;5056774;28;20199;-92
2023/01/12 01:52:53;;;;;;;0.00;0.00;;;;;;;;;;5056692;28;20595;-94
2023/01/12 01:55:22;;;;;;;0.10;0.10;;;;;;;;;;5056201;28;20277;-92
2023/01/12 01:57:55;;;;;;;0.00;0.00;;;;;;;;;;5056368;28;20218;-92
2023/01/12 02:00:25;;;;;;;0.17;0.17;;;;;;;;;;5055262;28;20282;-92
2023/01/12 02:02:55;;;;;;;0.10;0.10;;;;;;;;;;5055365;28;20192;-92
2023/01/12 02:05:24;;;;;;;0.40;0.40;;;;;;;;;;5054768;28;20234;-93
2023/01/12 02:07:52;;;;;;;0.50;0.50;;;;;;;;;;5054535;28;20575;-92
2023/01/12 02:10:21;;;;;;;0.00;0.00;;;;;;;;;;5055120;28;20258;-90
2023/01/12 02:18:56;;;;;;;0.10;0.10;;;;;;;;;;4973834;28;20209;-92
2023/01/12 02:21:36;;;;;;;0.13;0.13;;;;;;;;;;5040819;28;20203;-91
2023/01/12 02:24:28;;;;;;;0.23;0.23;;;;;;;;;;5055104;28;20195;-93
2023/01/12 02:27:22;;;;;;;0.00;0.00;;;;;;;;;;5054125;28;20199;-92
2023/01/12 02:30:18;;;;;;;;;;;;;;;;;;;;;
2023/01/12 02:32:55;;;;;;;1.40;0.43;;;;;;;;;;5055891;28;20199;-92
2023/01/12 02:35:27;;;;;;;0.20;0.20;;;;;;;;;;5055504;28;20627;-93
2023/01/12 02:38:05;;;;;;;0.10;0.10;;;;;;;;;;5055883;28;20584;-93
2023/01/12 02:40:39;;;;;;;0.00;0.00;;;;;;;;;;5055755;28;20199;-93
2023/01/12 02:45:46;;;;;;;0.20;0.20;;;;;;;;;;5824877;22;20243;-92
2023/01/12 02:48:22;;;;;;;0.10;0.10;;;;;;;;;;5095257;28;20236;-93
2023/01/12 02:50:54;;;;;;;0.23;0.23;;;;;;;;;;5083642;28;20198;-92
2023/01/12 02:53:31;;;;;;;0.63;0.63;;;;;;;;;;5076060;28;20260;-93
2023/01/12 02:55:59;;;;;;;0.47;0.47;;;;;;;;;;5072893;28;20207;-92
2023/01/12 02:58:28;;;;;;;0.10;0.10;;;;;;;;;;5077880;28;20194;-91
2023/01/12 03:01:01;;;;;;;0.20;0.20;;;;;;;;;;5093264;28;20464;-91
2023/01/12 03:03:30;;;;;;;0.60;0.60;;;;;;;;;;5095818;28;20224;-92
2023/01/12 03:06:00;;;;;;;0.00;0.00;;;;;;;;;;5095419;28;20226;-92
2023/01/12 03:08:37;;;;;;;0.07;0.07;;;;;;;;;;5087241;28;20190;-93
2023/01/12 03:11:12;;;;;;;0.80;0.80;;;;;;;;;;5055684;28;20636;-91
2023/01/12 03:13:46;;;;;;;0.33;0.30;;;;;;;;;;5055720;28;20206;-92
2023/01/12 03:16:20;;;;;;;0.20;0.20;;;;;;;;;;5054617;28;20563;-92
2023/01/12 03:18:58;;;;;;;0.20;0.20;;;;;;;;;;5055443;28;20195;-93
2023/01/12 03:21:34;;;;;;;0.57;0.57;;;;;;;;;;5056080;28;20694;-93
2023/01/12 03:24:05;;;;;;;0.30;0.30;;;;;;;;;;5063779;28;20213;-90
2023/01/12 03:26:37;;;;;;;0.77;0.77;;;;;;;;;;5074381;28;20237;-90
2023/01/12 03:29:13;;;;;;;0.10;0.10;;;;;;;;;;5074163;28;20296;-91
2023/01/12 03:31:48;;;;;;;0.37;0.37;;;;;;;;;;5075150;28;20179;-91
2023/01/12 03:34:19;;;;;;;0.40;0.40;;;;;;;;;;5059526;28;20201;-92
2023/01/12 03:36:56;;;;;;;0.00;0.00;;;;;;;;;;5056522;28;20209;-90
2023/01/12 03:39:38;;;;;;;0.53;0.53;;;;;;;;;;5055150;28;20671;-93
2023/01/12 03:42:20;;;;;;;0.00;0.00;;;;;;;;;;5054492;28;20202;-94
2023/01/12 03:44:53;;;;;;;0.03;0.03;;;;;;;;;;5055351;28;20587;-92
2023/01/12 03:47:24;;;;;;;0.00;0.00;;;;;;;;;;5055093;28;20639;-93
2023/01/12 03:50:16;;;;;;;0.20;0.20;;;;;;;;;;5054695;28;20202;-92
2023/01/12 03:52:46;;;;;;;0.60;0.60;;;;;;;;;;5054630;28;20207;-92
2023/01/12 03:55:22;;;;;;;0.20;0.20;;;;;;;;;;5053741;28;20191;-93
2023/01/12 03:57:55;;;;;;;0.10;0.10;;;;;;;;;;5053592;28;20245;-94
2023/01/12 04:00:26;;;;;;;0.17;0.17;;;;;;;;;;5054738;28;20195;-93
2023/01/12 04:03:04;;;;;;;0.10;0.10;;;;;;;;;;5053726;28;20203;-94
2023/01/12 04:05:47;;;;;;;0.40;0.40;;;;;;;;;;5053295;28;20281;-93
2023/01/12 04:08:19;;;;;;;0.10;0.10;;;;;;;;;;5053214;28;20199;-93
2023/01/12 04:10:48;;;;;;;0.20;0.20;;;;;;;;;;5052844;28;20779;-92
2023/01/12 04:13:18;;;;;;;0.40;0.40;;;;;;;;;;5052593;28;20209;-94
2023/01/12 04:16:04;;;;;;;0.30;0.30;;;;;;;;;;5052603;28;20276;-92
2023/01/12 04:18:33;;;;;;;0.00;0.00;;;;;;;;;;5043930;28;20207;-93
2023/01/12 04:23:59;;;;;;;0.20;0.20;;;;;;;;;;5051285;28;20184;-87
2023/01/12 04:26:30;;;;;;;0.53;0.53;;;;;;;;;;5051214;28;20288;-87
2023/01/12 04:28:58;;;;;;;0.20;0.20;;;;;;;;;;5051302;28;20289;-87
2023/01/12 04:31:25;;;;;;;0.20;0.20;;;;;;;;;;5051928;28;20263;-89
2023/01/12 04:33:57;;;;;;;0.20;0.20;;;;;;;;;;5051757;28;20223;-90
2023/01/12 04:36:29;;;;;;;0.00;0.00;;;;;;;;;;5053455;28;20199;-88
2023/01/12 04:38:57;;;;;;;0.43;0.43;;;;;;;;;;5052468;28;20195;-87
2023/01/12 04:41:27;;;;;;;0.50;0.50;;;;;;;;;;5051945;28;20592;-90
2023/01/12 04:43:55;;;;;;;0.17;0.17;;;;;;;;;;5053023;28;20203;-88
2023/01/12 04:46:26;;;;;;;0.10;0.10;;;;;;;;;;5053869;28;20243;-88
2023/01/12 04:48:54;;;;;;;0.30;0.30;;;;;;;;;;5054821;28;20584;-88
2023/01/12 04:51:24;;;;;;;0.27;0.27;;;;;;;;;;5053065;28;20201;-88
2023/01/12 04:53:53;;;;;;;0.10;0.10;;;;;;;;;;5053413;28;20293;-88
2023/01/12 04:56:22;;;;;;;0.20;0.20;;;;;;;;;;5058554;28;20552;-90
2023/01/12 04:58:52;;;;;;;1.27;0.90;;;;;;;;;;5052296;28;20262;-89
2023/01/12 05:01:21;;;;;;;0.53;0.50;;;;;;;;;;5052119;28;20251;-89
2023/01/12 05:03:48;;;;;;;0.23;0.23;;;;;;;;;;5051819;28;20214;-89
2023/01/12 05:06:17;;;;;;;0.20;0.20;;;;;;;;;;5051050;28;20242;-89
2023/01/12 05:11:43;;;;;;;0.07;0.07;;;;;;;;;;5051788;28;20187;-89
2023/01/12 05:14:13;;;;;;;0.00;0.00;;;;;;;;;;5051972;28;20238;-90
2023/01/12 05:16:40;;;;;;;0.17;0.17;;;;;;;;;;5051372;28;20199;-89
2023/01/12 05:19:11;;;;;;;0.00;0.00;;;;;;;;;;5052148;28;20670;-89
2023/01/12 05:21:47;;;;;;;0.00;0.00;;;;;;;;;;5067412;28;20195;-89
2023/01/12 05:24:17;;;;;;;0.00;0.00;;;;;;;;;;5059068;28;20205;-88
2023/01/12 05:26:56;;;;;;;0.33;0.33;;;;;;;;;;5054287;28;20306;-89
2023/01/12 05:29:23;;;;;;;0.10;0.10;;;;;;;;;;5051504;28;20217;-89
2023/01/12 05:31:54;;;;;;;0.10;0.10;;;;;;;;;;5058321;28;20245;-89
2023/01/12 05:34:25;;;;;;;0.10;0.10;;;;;;;;;;5063601;28;20291;-88
2023/01/12 05:36:54;;;;;;;0.10;0.10;;;;;;;;;;5065101;28;20187;-88
2023/01/12 05:39:22;;;;;;;0.27;0.27;;;;;;;;;;5069315;28;20199;-86
2023/01/12 05:44:54;;;;;;;0.10;0.10;;;;;;;;;;5024803;28;20195;-89
2023/01/12 05:47:22;;;;;;;0.50;0.50;;;;;;;;;;5063317;28;20667;-90
2023/01/12 05:49:51;;;;;;;0.20;0.20;;;;;;;;;;5069924;28;20199;-89
2023/01/12 05:52:19;;;;;;;0.20;0.20;;;;;;;;;;5050981;28;20209;-88
2023/01/12 05:54:47;;;;;;;0.77;0.30;;;;;;;;;;5055061;28;20217;-88
2023/01/12 05:57:23;;;;;;;0.30;0.23;;;;;;;;;;5055224;28;20285;-87
2023/01/12 05:59:51;;;;;;;0.03;0.03;;;;;;;;;;5054720;28;20207;-90
2023/01/12 06:02:20;;;;;;;1.80;0.47;;;;;;;;;;5075916;28;20218;-89
2023/01/12 06:04:48;;;;;;;0.20;0.20;;;;;;;;;;5088070;28;20267;-89
2023/01/12 06:07:24;;;;;;;0.63;0.63;;;;;;;;;;5084572;28;20213;-88
2023/01/12 06:09:52;;;;;;;0.10;0.10;;;;;;;;;;5072603;28;20761;-91
2023/01/12 06:15:09;;;;;;;0.10;0.10;;;;;;;;;;5056414;28;20662;-88
2023/01/12 06:17:39;;;;;;;0.23;0.23;;;;;;;;;;5055516;28;20207;-89
2023/01/12 06:20:07;;;;;;;0.13;0.13;;;;;;;;;;5055263;28;20279;-89
2023/01/12 06:22:36;;;;;;;0.03;0.03;;;;;;;;;;5054020;28;20210;-89
2023/01/12 06:25:06;;;;;;;1.00;0.47;;;;;;;;;;5052984;28;20215;-89
2023/01/12 06:27:38;;;;;;;0.23;0.23;;;;;;;;;;5035598;28;20234;-90
2023/01/12 06:30:08;;;;;;;0.60;0.60;;;;;;;;;;5041222;28;20195;-88
2023/01/12 06:32:51;;;;;;;;;;;;;;;;;;;;;
2023/01/12 06:38:10;;;;;;;0.10;0.10;;;;;;;;;;5060401;28;20273;-90
2023/01/12 06:40:41;;;;;;;0.23;0.23;;;;;;;;;;5058863;28;20199;-89
2023/01/12 06:43:12;;;;;;;0.30;0.30;;;;;;;;;;5060105;28;20188;-88
2023/01/12 06:45:41;;;;;;;0.60;0.40;;;;;;;;;;5056688;28;20688;-88
2023/01/12 06:48:11;;;;;;;0.70;0.70;;;;;;;;;;5054662;28;20230;-89
2023/01/12 06:50:39;;;;;;;2.07;0.50;;;;;;;;;;5055167;28;20704;-88
2023/01/12 06:53:08;;;;;;;1.30;0.40;;;;;;;;;;5054691;28;20196;-90
2023/01/12 06:55:38;;;;;;;0.70;0.70;;;;;;;;;;5055248;28;20264;-90
2023/01/12 06:58:11;;;;;;;0.20;0.20;;;;;;;;;;5054468;28;20629;-90
2023/01/12 07:00:49;;;;;;;0.40;0.40;;;;;;;;;;5053248;28;20752;-90
2023/01/12 07:03:24;;;;;;;0.40;0.23;;;;;;;;;;5054637;28;20203;-89
2023/01/12 07:05:53;;;;;;;0.73;0.50;;;;;;;;;;5054418;28;20206;-90
2023/01/12 07:08:21;;;;;;;0.40;0.30;;;;;;;;;;5053787;28;20214;-90
2023/01/12 07:10:49;;;;;;;1.90;1.10;;;;;;;;;;5053873;28;20231;-90
2023/01/12 07:13:27;;;;;;;2.00;0.93;;;;;;;;;;5053864;28;20203;-90
2023/01/12 07:15:58;;;;;;;0.27;0.27;;;;;;;;;;5052397;28;20199;-89
2023/01/12 07:18:26;;;;;;;0.40;0.33;;;;;;;;;;5052610;28;20191;-91
2023/01/12 07:21:02;;;;;;;0.10;0.10;;;;;;;;;;5052580;28;20659;-92
2023/01/12 07:23:30;;;;;;;0.00;0.00;;;;;;;;;;5052324;28;20195;-88
2023/01/12 07:26:00;;;;;;;0.97;0.97;;;;;;;;;;5054640;28;20269;-89
2023/01/12 07:28:30;;;;;;;0.13;0.13;;;;;;;;;;5059323;28;20205;-88
2023/01/12 07:31:02;;;;;;;1.47;1.00;;;;;;;;;;5052362;28;20221;-88
2023/01/12 07:33:33;;;;;;;0.77;0.37;;;;;;;;;;5055156;28;20234;-90
2023/01/12 07:36:02;;;;;;;0.30;0.30;;;;;;;;;;5053857;28;20262;-90
2023/01/12 07:38:30;;;;;;;2.17;0.50;;;;;;;;;;5073783;28;20197;-91
2023/01/12 07:41:01;;;;;;;0.17;0.17;;;;;;;;;;5074743;28;20206;-91
2023/01/12 07:43:29;;;;;;;0.20;0.17;;;;;;;;;;5076311;28;20203;-90
2023/01/12 07:46:02;;;;;;;0.20;0.20;;;;;;;;;;5074425;28;20278;-89
2023/01/12 07:48:32;;;;;;;0.37;0.37;;;;;;;;;;5072426;28;20259;-86
2023/01/12 07:51:02;;;;;;;1.17;0.70;;;;;;;;;;5073818;28;20180;-88
2023/01/12 07:53:31;;;;;;;0.30;0.30;;;;;;;;;;5051956;28;20195;-90
2023/01/12 07:55:59;;;;;;;0.60;0.60;;;;;;;;;;5052427;28;20199;-89
2023/01/12 07:58:29;;;;;;;1.07;0.87;;;;;;;;;;5051851;28;20192;-89
2023/01/12 08:00:59;;;;;;;0.37;0.37;;;;;;;;;;5051590;28;20585;-90
2023/01/12 08:03:30;;;;;;;0.53;0.53;;;;;;;;;;5052139;28;20668;-90
2023/01/12 08:05:57;;;;;;;0.83;0.83;;;;;;;;;;5052397;28;20249;-89
2023/01/12 08:08:30;;;;;;;0.10;0.10;;;;;;;;;;5054014;28;20214;-88
2023/01/12 08:11:01;;;;;;;0.13;0.13;;;;;;;;;;5053945;28;20238;-90
2023/01/12 08:13:30;;;;;;;0.30;0.30;;;;;;;;;;5052039;28;20652;-90
2023/01/12 08:16:01;;;;;;;0.10;0.10;;;;;;;;;;5052911;28;20195;-89
2023/01/12 08:18:32;;;;;;;0.47;0.43;;;;;;;;;;5052663;28;20235;-90
2023/01/12 08:21:01;;;;;;;1.80;0.47;;;;;;;;;;5051466;28;20246;-89
2023/01/12 08:23:31;;;;;;;2.57;0.63;;;;;;;;;;5051728;28;20683;-87
2023/01/12 08:26:03;;;;;;;2.00;0.47;;;;;;;;;;5052302;28;20610;-90
2023/01/12 08:28:35;;;;;;;0.00;0.00;;;;;;;;;;5051340;28;20748;-90
2023/01/12 08:31:02;;;;;;;0.27;0.27;;;;;;;;;;5051513;28;20698;-88
2023/01/12 08:33:32;;;;;;;0.43;0.43;;;;;;;;;;5051623;28;20203;-91
2023/01/12 08:36:00;;;;;;;0.27;0.27;;;;;;;;;;5051209;28;20315;-89
2023/01/12 08:38:28;;;;;;;0.60;0.60;;;;;;;;;;5057880;28;20267;-89
2023/01/12 08:46:28;;;;;;;0.47;0.47;;;;;;;;;;5053046;28;20619;-89
2023/01/12 08:49:01;;;;;;;0.20;0.20;;;;;;;;;;5051540;28;20196;-89
2023/01/12 08:51:39;;;;;;;1.27;0.63;;;;;;;;;;5051136;28;20214;-89
2023/01/12 08:54:13;;;;;;;0.30;0.30;;;;;;;;;;5051885;28;20297;-90
2023/01/12 08:56:41;;;;;;;0.03;0.03;;;;;;;;;;5053291;28;20696;-90
2023/01/12 08:59:11;;;;;;;0.50;0.50;;;;;;;;;;5053109;28;20257;-89
2023/01/12 09:01:42;;;;;;;0.10;0.10;;;;;;;;;;5055312;28;20265;-89
2023/01/12 09:04:16;;;;;;;0.30;0.30;;;;;;;;;;5053052;28;20200;-90
2023/01/12 09:06:56;;;;;;;0.10;0.10;;;;;;;;;;5061809;28;20230;-91
2023/01/12 09:09:24;;;;;;;0.40;0.40;;;;;;;;;;5073551;28;20203;-88
2023/01/12 09:11:55;;;;;;;0.37;0.37;;;;;;;;;;5075776;28;20279;-87
2023/01/12 09:14:24;;;;;;;0.30;0.30;;;;;;;;;;5075417;28;20199;-88
2023/01/12 09:16:52;;;;;;;0.50;0.50;;;;;;;;;;5074787;28;20203;-89
2023/01/12 09:19:22;;;;;;;0.10;0.10;;;;;;;;;;5075582;28;20198;-89
2023/01/12 09:21:58;;;;;;;0.27;0.27;;;;;;;;;;5073839;28;20209;-90
2023/01/12 09:24:29;;;;;;;0.10;0.10;;;;;;;;;;5071940;28;20209;-89
2023/01/12 09:26:58;;;;;;;0.00;0.00;;;;;;;;;;5073375;28;20638;-91
2023/01/12 09:29:28;;;;;;;0.07;0.07;;;;;;;;;;5072863;28;20203;-89
2023/01/12 09:31:57;;;;;;;0.20;0.20;;;;;;;;;;5076831;28;20202;-89
2023/01/12 09:34:38;;;;;;;0.10;0.10;;;;;;;;;;5078392;28;20195;-90
2023/01/12 09:37:15;;;;;;;0.10;0.10;;;;;;;;;;5078056;28;20198;-90
2023/01/12 09:39:47;;;;;;;0.20;0.20;;;;;;;;;;5057506;28;20215;-90
2023/01/12 09:47:53;;;;;;;0.37;0.37;;;;;;;;;;5047484;28;20675;-89
2023/01/12 09:50:26;;;;;;;0.00;0.00;;;;;;;;;;5035751;28;20200;-89
2023/01/12 09:53:01;;;;;;;0.30;0.30;;;;;;;;;;5036541;28;20261;-88
2023/01/12 09:55:33;;;;;;;0.10;0.10;;;;;;;;;;5035866;28;20206;-90
2023/01/12 09:58:18;;;;;;;0.73;0.67;;;;;;;;;;5035157;28;20206;-88
2023/01/12 10:01:00;;;;;;;0.00;0.00;;;;;;;;;;5034932;28;20210;-90
2023/01/12 10:03:34;;;;;;;0.10;0.10;;;;;;;;;;5038172;28;20211;-89
2023/01/12 10:06:08;;;;;;;0.20;0.20;;;;;;;;;;5037954;28;20287;-89
2023/01/12 10:08:38;;;;;;;0.27;0.13;;;;;;;;;;5038010;28;20239;-88
2023/01/12 10:11:19;;;;;;;0.30;0.30;;;;;;;;;;5038383;28;20216;-90
2023/01/12 10:13:56;;;;;;;0.83;0.83;;;;;;;;;;5052685;28;20203;-90
2023/01/12 10:16:26;;;;;;;0.23;0.23;;;;;;;;;;5050116;28;20257;-90
2023/01/12 10:19:06;;;;;;;0.07;0.07;;;;;;;;;;5051158;28;20196;-90
2023/01/12 10:21:37;;;;;;;0.10;0.10;;;;;;;;;;5055654;28;20346;-90
2023/01/12 10:24:14;;;;;;;0.10;0.10;;;;;;;;;;5053952;28;20289;-91
2023/01/12 10:26:48;;;;;;;2.33;0.80;;;;;;;;;;5038932;28;20191;-88
2023/01/12 10:29:19;;;;;;;0.30;0.30;;;;;;;;;;5037944;28;20268;-91
2023/01/12 10:31:50;;;;;;;0.00;0.00;;;;;;;;;;5037333;28;20234;-90
2023/01/12 10:34:17;;;;;;;0.50;0.50;;;;;;;;;;5037718;28;20295;-86
2023/01/12 10:36:53;;;;;;;0.27;0.27;;;;;;;;;;5041248;28;20258;-88
2023/01/12 10:39:31;;;;;;;0.10;0.10;;;;;;;;;;5061385;28;20278;-89
2023/01/12 10:54:50;;;;;;;0.10;0.10;;;;;;;;;;5057395;28;20231;-93
2023/01/12 11:00:55;;;;;;;0.80;0.50;;;;;;;;;;5053512;28;20266;-92
2023/01/12 11:03:55;;;;;;;0.40;0.40;;;;;;;;;;5059762;28;20215;-93
2023/01/12 11:06:43;;;;;;;0.30;0.30;;;;;;;;;;5056759;28;20247;-91
2023/01/12 11:09:48;;;;;;;0.20;0.20;;;;;;;;;;5060105;28;20239;-92
2023/01/12 11:12:35;;;;;;;1.70;0.50;;;;;;;;;;5063291;28;20246;-92
2023/01/12 11:15:22;;;;;;;0.07;0.07;;;;;;;;;;5066995;28;20211;-93
2023/01/12 11:21:07;;;;;;;0.00;0.00;;;;;;;;;;5058785;28;20240;-94
2023/01/12 11:24:10;;;;;;;;;;;;;;;;;;;;;
2023/01/12 11:27:08;;;;;;;0.33;0.33;;;;;;;;;;5018954;28;20573;-94
2023/01/12 11:30:19;;;;;;;0.87;0.87;;;;;;;;;;5020015;28;20224;-93
2023/01/12 11:32:59;;;;;;;0.07;0.07;;;;;;;;;;5026401;28;20224;-93
2023/01/12 11:35:36;;;;;;;0.30;0.30;;;;;;;;;;5035753;28;20217;-93
2023/01/12 11:44:06;;;;;;;;;;;;;;;;;;;;;
2023/01/12 11:49:59;;;;;;;0.27;0.20;;;;;;;;;;5015830;28;20272;-94
2023/01/12 12:01:53;;;;;;;0.73;0.63;;;;;;;;;;5122766;22;20235;-93
2023/01/12 12:07:55;;;;;;;1.30;0.23;;;;;;;;;;5040854;28;20255;-95
2023/01/12 12:23:09;;;;;;;0.40;0.40;;;;;;;;;;4996006;28;20229;-93
2023/01/12 12:31:50;;;;;;;0.20;0.20;;;;;;;;;;5051267;28;20228;-93
2023/01/12 12:34:48;;;;;;;2.17;0.30;;;;;;;;;;5036655;28;20295;-95
2023/01/12 12:50:11;;;;;;;1.10;0.43;;;;;;;;;;5027696;28;20232;-92
2023/01/12 12:53:01;;;;;;;0.57;0.27;;;;;;;;;;5038973;28;20221;-93
2023/01/12 12:59:14;;;;;;;0.67;0.40;;;;;;;;;;5020504;28;20228;-93
2023/01/12 13:05:32;;;;;;;1.23;0.80;;;;;;;;;;4919846;29;20227;-92
2023/01/12 13:17:26;;;;;;;0.23;0.23;;;;;;;;;;5045734;28;20226;-93
2023/01/12 13:23:51;;;;;;;0.47;0.47;;;;;;;;;;5159828;27;20335;-94
2023/01/12 13:35:52;;;;;;;0.43;0.43;;;;;;;;;;5139494;27;20233;-91
2023/01/12 13:38:51;;;;;;;0.30;0.30;;;;;;;;;;5144211;27;20228;-91
2023/01/12 13:44:53;;;;;;;0.00;0.00;;;;;;;;;;5150740;27;20242;-92
2023/01/12 13:47:58;;;;;;;0.30;0.30;;;;;;;;;;5153229;27;20716;-92
2023/01/12 13:50:47;;;;;;;0.20;0.20;;;;;;;;;;5132612;27;20208;-91
2023/01/12 13:53:41;;;;;;;1.03;0.93;;;;;;;;;;5153080;27;20220;-91
2023/01/12 13:56:37;;;;;;;0.33;0.33;;;;;;;;;;5151526;27;20254;-92
2023/01/12 13:59:20;;;;;;;0.30;0.30;;;;;;;;;;5151598;28;20242;-91
2023/01/12 14:02:00;;;;;;;0.53;0.53;;;;;;;;;;5150767;27;20232;-92
2023/01/12 14:05:06;;;;;;;0.10;0.10;;;;;;;;;;5150423;27;20238;-92
2023/01/12 14:08:00;;;;;;;0.43;0.30;;;;;;;;;;5148790;28;20231;-90
2023/01/12 14:10:50;;;;;;;0.10;0.10;;;;;;;;;;5124448;27;20236;-91
2023/01/12 14:22:54;;;;;;;0.23;0.23;;;;;;;;;;5193388;22;20229;-93
2023/01/12 14:34:36;;;;;;;1.33;0.50;;;;;;;;;;5116344;28;20363;-93
2023/01/12 14:49:13;;;;;;;0.40;0.40;;;;;;;;;;5095900;28;20225;-92
2023/01/12 14:51:53;;;;;;;0.47;0.47;;;;;;;;;;5077623;28;20297;-92
2023/01/12 14:54:32;;;;;;;1.27;1.20;;;;;;;;;;5078058;28;20202;-93
2023/01/12 14:57:15;;;;;;;0.83;0.67;;;;;;;;;;5161862;22;20225;-93
2023/01/12 15:02:54;;;;;;;0.43;0.43;;;;;;;;;;5117844;28;20216;-92
2023/01/12 15:05:31;;;;;;;0.27;0.27;;;;;;;;;;5118432;28;20174;-92
2023/01/12 15:08:02;;;;;;;0.67;0.20;;;;;;;;;;5116037;28;20190;-93
2023/01/12 15:10:43;;;;;;;0.30;0.30;;;;;;;;;;5093860;28;20215;-91
2023/01/12 15:13:35;;;;;;;0.10;0.10;;;;;;;;;;5088361;28;20194;-91
2023/01/12 15:30:44;;;;;;;1.30;1.20;;;;;;;;;;5115328;22;20294;-92
2023/01/12 15:33:34;;;;;;;0.57;0.43;;;;;;;;;;5093758;28;20221;-94
2023/01/12 15:36:38;;;;;;;0.23;0.23;;;;;;;;;;5089312;28;20206;-93
2023/01/12 15:48:07;;;;;;;0.57;0.57;;;;;;;;;;3514656;22;20424;-93
2023/01/12 16:27:01;;;;;;;0.37;0.30;;;;;;;;;;5064582;28;20234;-94
2023/01/12 16:33:01;;;;;;;0.53;0.53;;;;;;;;;;5201021;22;20431;-94
2023/01/12 16:35:57;;;;;;;0.07;0.07;;;;;;;;;;5079802;28;20249;-92
